createdAt,value
2022-08-03T00:00:33.621Z,99265.81
2022-08-03T00:03:01.697Z,99269.47
2022-08-03T00:05:29.723Z,99268.63
2022-08-03T00:07:57.629Z,99277.56
2022-08-03T00:10:27.386Z,99277.56
2022-08-03T00:12:55.343Z,99268.63
2022-08-03T00:15:23.427Z,99266.00
2022-08-03T00:17:52.049Z,99267.81
2022-08-03T00:20:21.306Z,99261.50
2022-08-03T00:22:49.323Z,99259.81
2022-08-03T00:25:17.585Z,99260.69
2022-08-03T00:27:48.354Z,99253.59
2022-08-03T00:30:18.353Z,99255.31
2022-08-03T00:32:46.281Z,99263.47
2022-08-03T00:35:32.504Z,99261.63
2022-08-03T00:38:02.438Z,99265.28
2022-08-03T00:40:31.041Z,99266.19
2022-08-03T00:43:02.400Z,99258.13
2022-08-03T00:45:32.611Z,99258.22
2022-08-03T00:48:01.551Z,99259.09
2022-08-03T00:50:32.477Z,99250.22
2022-08-03T00:53:01.194Z,99252.03
2022-08-03T00:55:29.228Z,99244.00
2022-08-03T00:57:59.510Z,99248.50
2022-08-03T01:00:29.470Z,99244.03
2022-08-03T01:02:57.485Z,99242.31
2022-08-03T01:05:26.236Z,99239.75
2022-08-03T01:08:04.416Z,99241.63
2022-08-03T01:10:43.067Z,99246.78
2022-08-03T01:14:01.509Z,99241.16
2022-08-03T01:16:22.379Z,99247.03
2022-08-03T01:19:14.362Z,99239.13
2022-08-03T01:21:54.377Z,99243.56
2022-08-03T01:24:36.264Z,99236.25
2022-08-03T01:27:12.705Z,99230.41
2022-08-03T01:30:01.014Z,99226.19
2022-08-03T01:33:02.926Z,99234.16
2022-08-03T01:35:30.834Z,99242.25
2022-08-03T01:38:02.016Z,99241.91
2022-08-03T01:40:33.581Z,99242.03
2022-08-03T01:43:04.555Z,99232.63
2022-08-03T01:45:35.469Z,99233.41
2022-08-03T01:48:04.542Z,99237.25
2022-08-03T01:50:34.476Z,99233.41
2022-08-03T01:53:03.658Z,99229.84
2022-08-03T01:55:33.997Z,99231.56
2022-08-03T01:58:06.814Z,99235.03
2022-08-03T02:00:38.079Z,99220.91
2022-08-03T02:03:07.959Z,99219.19
2022-08-03T02:05:37.765Z,99215.69
2022-08-03T02:08:08.732Z,99215.56
2022-08-03T02:10:38.826Z,99220.13
2022-08-03T02:13:10.372Z,99221.94
2022-08-03T02:15:40.086Z,99221.97
2022-08-03T02:18:10.750Z,99228.31
2022-08-03T02:20:40.145Z,99231.78
2022-08-03T02:23:08.528Z,99237.09
2022-08-03T02:25:42.871Z,99247.03
2022-08-03T02:28:15.682Z,99247.97
2022-08-03T02:30:51.707Z,99239.25
2022-08-03T02:33:28.247Z,99238.34
2022-08-03T02:35:58.375Z,99231.31
2022-08-03T02:38:33.198Z,99238.44
2022-08-03T02:41:04.111Z,99237.53
2022-08-03T02:44:05.384Z,99242.75
2022-08-03T02:46:26.804Z,99233.00
2022-08-03T02:49:00.513Z,99228.47
2022-08-03T02:51:50.666Z,99231.91
2022-08-03T02:54:21.117Z,99234.53
2022-08-03T02:56:50.045Z,99237.16
2022-08-03T02:59:19.743Z,99225.78
2022-08-03T03:01:49.882Z,99231.09
2022-08-03T03:04:19.522Z,99227.56
2022-08-03T03:06:50.490Z,99238.13
2022-08-03T03:09:20.804Z,99234.56
2022-08-03T03:11:51.918Z,99242.56
2022-08-03T03:14:33.685Z,99238.16
2022-08-03T03:17:04.465Z,99237.41
2022-08-03T03:19:34.691Z,99240.94
2022-08-03T03:22:07.211Z,99240.19
2022-08-03T03:24:37.130Z,99239.34
2022-08-03T03:27:05.521Z,99242.19
2022-08-03T03:29:39.439Z,99229.94
2022-08-03T03:32:09.766Z,99232.50
2022-08-03T03:34:38.432Z,99237.75
2022-08-03T03:37:06.751Z,99237.81
2022-08-03T03:39:36.459Z,99239.53
2022-08-03T03:42:04.624Z,99237.72
2022-08-03T03:44:32.443Z,99242.09
2022-08-03T03:47:00.255Z,99241.25
2022-08-03T03:49:29.484Z,99238.56
2022-08-03T03:51:59.829Z,99234.13
2022-08-03T03:54:29.270Z,99245.47
2022-08-03T03:56:57.382Z,99238.44
2022-08-03T03:59:25.144Z,99243.78
2022-08-03T04:01:58.864Z,99247.34
2022-08-03T04:04:44.667Z,99249.13
2022-08-03T04:07:31.206Z,99244.69
2022-08-03T04:10:16.320Z,99243.84
2022-08-03T04:12:49.974Z,99247.41
2022-08-03T04:15:21.978Z,99249.00
2022-08-03T04:17:51.317Z,99251.78
2022-08-03T04:20:21.727Z,99255.34
2022-08-03T04:22:52.523Z,99245.69
2022-08-03T04:25:22.154Z,99260.69
2022-08-03T04:28:19.706Z,99259.78
2022-08-03T04:30:47.534Z,99260.66
2022-08-03T04:33:15.518Z,99267.72
2022-08-03T04:35:58.554Z,99276.56
2022-08-03T04:38:33.055Z,99273.94
2022-08-03T04:41:01.123Z,99266.00
2022-08-03T04:43:29.168Z,99280.16
2022-08-03T04:45:58.006Z,99270.41
2022-08-03T04:48:26.313Z,99271.19
2022-08-03T04:50:55.756Z,99270.44
2022-08-03T04:53:23.795Z,99278.38
2022-08-03T04:55:53.107Z,99277.50
2022-08-03T04:58:21.088Z,99275.72
2022-08-03T05:00:51.403Z,99295.16
2022-08-03T05:03:24.251Z,99292.50
2022-08-03T05:05:53.092Z,99289.81
2022-08-03T05:08:30.261Z,99296.78
2022-08-03T05:11:01.068Z,99302.06
2022-08-03T05:13:28.910Z,99313.63
2022-08-03T05:15:56.832Z,99310.09
2022-08-03T05:18:24.609Z,99317.13
2022-08-03T05:20:52.321Z,99306.47
2022-08-03T05:23:22.854Z,99319.66
2022-08-03T05:25:51.024Z,99319.56
2022-08-03T05:28:38.621Z,99315.97
2022-08-03T05:31:41.997Z,99318.53
2022-08-03T05:34:28.359Z,99317.59
2022-08-03T05:37:28.469Z,99321.91
2022-08-03T05:39:56.364Z,99322.69
2022-08-03T05:42:43.146Z,99334.25
2022-08-03T05:45:30.712Z,99336.91
2022-08-03T05:48:16.871Z,99339.41
2022-08-03T05:51:05.362Z,99342.84
2022-08-03T05:53:52.304Z,99345.19
2022-08-03T05:56:41.041Z,99337.66
2022-08-03T05:59:38.157Z,99347.38
2022-08-03T06:02:26.515Z,99343.28
2022-08-03T06:05:13.126Z,99350.59
2022-08-03T06:08:04.151Z,99347.81
2022-08-03T06:10:36.451Z,99351.13
2022-08-03T06:13:32.367Z,99361.56
2022-08-03T06:16:23.063Z,99365.78
2022-08-03T06:19:10.670Z,99372.81
2022-08-03T06:21:57.113Z,99364.63
2022-08-03T06:24:53.779Z,99369.72
2022-08-03T06:27:41.166Z,99367.91
2022-08-03T06:30:29.198Z,99363.59
2022-08-03T06:33:02.996Z,99368.69
2022-08-03T06:35:35.249Z,99370.47
2022-08-03T06:38:27.572Z,99361.53
2022-08-03T06:41:13.793Z,99366.97
2022-08-03T06:44:07.640Z,99373.28
2022-08-03T06:47:06.711Z,99363.06
2022-08-03T06:50:12.995Z,99375.88
2022-08-03T06:53:01.254Z,99383.53
2022-08-03T06:55:51.217Z,99381.75
2022-08-03T06:58:40.700Z,99383.44
2022-08-03T07:01:11.634Z,99384.59
2022-08-03T07:03:47.568Z,99388.97
2022-08-03T07:06:20.017Z,99385.22
2022-08-03T07:08:52.285Z,99381.44
2022-08-03T07:11:21.575Z,99387.31
2022-08-03T07:13:49.438Z,99386.53
2022-08-03T07:16:20.111Z,99387.78
2022-08-03T07:18:48.067Z,99395.44
2022-08-03T07:21:17.072Z,99392.19
2022-08-03T07:23:44.902Z,99411.13
2022-08-03T07:26:14.374Z,99404.63
2022-08-03T07:28:42.125Z,99398.53
2022-08-03T07:31:10.000Z,99394.03
2022-08-03T07:33:37.959Z,99390.19
2022-08-03T07:36:06.098Z,99396.66
2022-08-03T07:38:34.081Z,99399.94
2022-08-03T07:41:05.157Z,99403.16
2022-08-03T07:43:34.372Z,99400.63
2022-08-03T07:46:02.086Z,99393.91
2022-08-03T07:48:29.873Z,99406.53
2022-08-03T07:52:51.836Z,99407.34
2022-08-03T07:58:07.661Z,99406.00
2022-08-03T08:00:35.816Z,99401.50
2022-08-03T08:03:04.569Z,99405.69
2022-08-03T08:05:32.840Z,99410.28
2022-08-03T08:08:01.186Z,99404.22
2022-08-03T08:10:29.402Z,99407.91
2022-08-03T08:12:58.252Z,99403.38
2022-08-03T08:15:47.887Z,99409.94
2022-08-03T08:18:16.292Z,99405.50
2022-08-03T08:21:07.196Z,99409.81
2022-08-03T08:23:41.899Z,99407.31
2022-08-03T08:26:11.039Z,99413.47
2022-08-03T08:28:42.389Z,99414.84
2022-08-03T08:31:12.121Z,99414.94
2022-08-03T08:34:03.205Z,99416.09
2022-08-03T08:36:31.051Z,99416.50
2022-08-03T08:39:01.528Z,99418.91
2022-08-03T08:41:33.769Z,99409.63
2022-08-03T08:44:01.919Z,99417.38
2022-08-03T08:46:35.334Z,99422.31
2022-08-03T08:49:04.816Z,99416.88
2022-08-03T08:51:59.695Z,99423.09
2022-08-03T08:54:45.821Z,99419.38
2022-08-03T08:57:46.386Z,99424.50
2022-08-03T09:00:33.514Z,99425.66
2022-08-03T09:03:22.512Z,99426.38
2022-08-03T09:06:30.596Z,99435.59
2022-08-03T09:10:05.292Z,99441.84
2022-08-03T09:12:41.482Z,99443.19
2022-08-03T09:15:31.450Z,99441.56
2022-08-03T09:18:32.757Z,99444.31
2022-08-03T09:21:32.623Z,99448.16
2022-08-03T09:24:12.996Z,99451.44
2022-08-03T09:27:13.459Z,99435.16
2022-08-03T09:29:50.482Z,99444.97
2022-08-03T09:32:38.631Z,99444.03
2022-08-03T09:35:53.635Z,99456.63
2022-08-03T09:38:44.084Z,99459.81
2022-08-03T09:41:28.377Z,99449.09
2022-08-03T09:44:24.379Z,99450.94
2022-08-03T09:47:18.696Z,99444.69
2022-08-03T09:50:13.168Z,99452.91
2022-08-03T09:53:08.443Z,99449.41
2022-08-03T09:56:35.257Z,99451.44
2022-08-03T09:59:11.532Z,99436.97
2022-08-03T10:01:59.852Z,99442.09
2022-08-03T10:04:48.795Z,99453.09
2022-08-03T10:07:21.432Z,99445.13
2022-08-03T10:10:30.520Z,99452.00
2022-08-03T10:13:20.118Z,99442.78
2022-08-03T10:16:21.917Z,99442.94
2022-08-03T10:19:12.049Z,99442.25
2022-08-03T10:22:02.460Z,99450.91
2022-08-03T10:25:03.988Z,99437.38
2022-08-03T10:27:54.524Z,99444.28
2022-08-03T10:30:42.447Z,99440.13
2022-08-03T10:33:51.887Z,99431.50
2022-08-03T10:36:45.643Z,99437.72
2022-08-03T10:39:20.743Z,99433.44
2022-08-03T10:42:14.608Z,99426.50
2022-08-03T10:45:08.435Z,99433.41
2022-08-03T10:48:14.882Z,99426.59
2022-08-03T10:51:15.359Z,99422.06
2022-08-03T10:54:02.167Z,99413.75
2022-08-03T10:57:13.694Z,99414.56
2022-08-03T11:00:13.414Z,99401.38
2022-08-03T11:03:14.474Z,99404.94
2022-08-03T11:05:46.879Z,99403.06
2022-08-03T11:08:29.365Z,99400.13
2022-08-03T11:10:59.858Z,99389.09
2022-08-03T11:13:31.901Z,99392.91
2022-08-03T11:16:06.690Z,99392.59
2022-08-03T11:18:36.698Z,99381.56
2022-08-03T11:21:05.032Z,99390.09
2022-08-03T11:24:04.541Z,99383.72
2022-08-03T11:26:33.069Z,99373.72
2022-08-03T11:29:29.414Z,99373.88
2022-08-03T11:31:59.096Z,99374.50
2022-08-03T11:34:27.788Z,99370.41
2022-08-03T11:37:23.551Z,99374.41
2022-08-03T11:39:55.543Z,99356.50
2022-08-03T11:42:48.470Z,99355.44
2022-08-03T11:45:16.868Z,99354.22
2022-08-03T11:47:50.942Z,99348.81
2022-08-03T11:50:20.290Z,99347.69
2022-08-03T11:52:49.687Z,99346.69
2022-08-03T11:55:21.990Z,99338.84
2022-08-03T11:59:01.491Z,99331.63
2022-08-03T12:00:40.435Z,99326.19
2022-08-03T12:03:13.827Z,99328.22
2022-08-03T12:05:51.798Z,99330.50
2022-08-03T12:08:33.670Z,99324.69
2022-08-03T12:11:07.686Z,99319.31
2022-08-03T12:14:44.260Z,99303.13
2022-08-03T12:16:34.055Z,99302.09
2022-08-03T12:19:05.334Z,99289.59
2022-08-03T12:21:33.754Z,99293.13
2022-08-03T12:24:03.064Z,99298.22
2022-08-03T12:26:32.329Z,99301.09
2022-08-03T12:29:00.329Z,99294.88
2022-08-03T12:31:28.531Z,99293.53
2022-08-03T12:33:59.452Z,99291.09
2022-08-03T12:36:30.195Z,99288.38
2022-08-03T12:39:00.595Z,99289.78
2022-08-03T12:41:31.403Z,99280.94
2022-08-03T12:43:59.989Z,99271.25
2022-08-03T12:46:33.482Z,99273.09
2022-08-03T12:49:07.248Z,99271.66
2022-08-03T12:51:58.003Z,99260.19
2022-08-03T12:54:28.050Z,99248.63
2022-08-03T12:57:00.726Z,99253.16
2022-08-03T12:59:32.298Z,99254.19
2022-08-03T13:02:09.147Z,99256.47
2022-08-03T13:04:38.265Z,99254.97
2022-08-03T13:07:14.202Z,99249.56
2022-08-03T13:09:45.143Z,99251.53
2022-08-03T13:12:14.947Z,99246.84
2022-08-03T13:14:43.648Z,99246.88
2022-08-03T13:17:12.245Z,99253.03
2022-08-03T13:19:41.428Z,99250.66
2022-08-03T13:22:15.330Z,99247.13
2022-08-03T13:24:44.785Z,99235.19
2022-08-03T13:28:01.730Z,99236.25
2022-08-03T13:30:04.112Z,99233.44
2022-08-03T13:32:32.143Z,99225.28
2022-08-03T13:35:00.314Z,99221.25
2022-08-03T13:37:29.838Z,99228.56
2022-08-03T13:40:02.726Z,99224.25
2022-08-03T13:42:38.918Z,99217.34
2022-08-03T13:45:09.409Z,99229.44
2022-08-03T13:47:37.891Z,99220.28
2022-08-03T13:50:06.620Z,99219.69
2022-08-03T13:52:37.459Z,99223.00
2022-08-03T13:55:07.628Z,99221.16
2022-08-03T13:58:19.042Z,99221.25
2022-08-03T14:00:44.910Z,99214.75
2022-08-03T14:03:14.463Z,99226.34
2022-08-03T14:05:43.486Z,99220.16
2022-08-03T14:08:13.460Z,99217.84
2022-08-03T14:10:44.209Z,99219.44
2022-08-03T14:13:14.441Z,99202.84
2022-08-03T14:15:49.823Z,99212.06
2022-08-03T14:18:28.594Z,99206.53
2022-08-03T14:21:06.352Z,99211.31
2022-08-03T14:23:38.562Z,99208.38
2022-08-03T14:26:07.217Z,99212.66
2022-08-03T14:28:35.194Z,99199.97
2022-08-03T14:31:08.095Z,99198.91
2022-08-03T14:33:43.609Z,99181.44
2022-08-03T14:36:11.678Z,99180.81
2022-08-03T14:38:41.042Z,99189.34
2022-08-03T14:41:12.323Z,99175.88
2022-08-03T14:44:01.657Z,99178.00
2022-08-03T14:46:30.686Z,99181.53
2022-08-03T14:50:30.726Z,99174.63
2022-08-03T14:51:53.782Z,99173.13
2022-08-03T14:54:23.880Z,99164.66
2022-08-03T14:56:52.084Z,99166.75
2022-08-03T14:59:20.084Z,99161.28
2022-08-03T15:02:04.649Z,99158.16
2022-08-03T15:04:34.760Z,99155.63
2022-08-03T15:07:02.703Z,99151.03
2022-08-03T15:09:32.667Z,99143.22
2022-08-03T15:12:00.901Z,99124.25
2022-08-03T15:14:33.214Z,99095.44
2022-08-03T15:17:03.052Z,99078.81
2022-08-03T15:20:02.417Z,99061.25
2022-08-03T15:22:24.800Z,99056.34
2022-08-03T15:24:56.225Z,99058.31
2022-08-03T15:27:24.340Z,99070.38
2022-08-03T15:30:07.124Z,99075.13
2022-08-03T15:32:37.692Z,99078.66
2022-08-03T15:35:06.384Z,99072.28
2022-08-03T15:37:34.331Z,99080.09
2022-08-03T15:40:03.879Z,99084.97
2022-08-03T15:42:32.468Z,99088.34
2022-08-03T15:45:00.797Z,99093.78
2022-08-03T15:47:28.961Z,99090.94
2022-08-03T15:49:57.137Z,99084.75
2022-08-03T15:52:25.154Z,99095.06
2022-08-03T15:54:53.118Z,99084.69
2022-08-03T15:57:22.953Z,99093.34
2022-08-03T15:59:51.868Z,99088.91
2022-08-03T16:02:20.153Z,99087.63
2022-08-03T16:04:48.401Z,99083.81
2022-08-03T16:07:36.798Z,99084.97
2022-08-03T16:10:05.490Z,99081.59
2022-08-03T16:12:34.993Z,99073.78
2022-08-03T16:15:07.817Z,99073.38
2022-08-03T16:17:35.897Z,99054.09
2022-08-03T16:20:10.569Z,99052.56
2022-08-03T16:22:52.320Z,99039.13
2022-08-03T16:25:20.420Z,99032.84
2022-08-03T16:28:03.187Z,99036.63
2022-08-03T16:30:35.624Z,99037.53
2022-08-03T16:33:03.776Z,99035.97
2022-08-03T16:35:31.819Z,99030.06
2022-08-03T16:38:00.227Z,99021.81
2022-08-03T16:40:28.703Z,99026.78
2022-08-03T16:42:58.292Z,99021.91
2022-08-03T16:45:26.403Z,99012.00
2022-08-03T16:48:05.491Z,99014.41
2022-08-03T16:50:34.498Z,99006.34
2022-08-03T16:53:03.671Z,99014.97
2022-08-03T16:55:48.688Z,99016.69
2022-08-03T16:58:24.441Z,99018.66
2022-08-03T17:01:21.057Z,99010.84
2022-08-03T17:03:57.464Z,99031.50
2022-08-03T17:06:34.173Z,99026.53
2022-08-03T17:09:04.112Z,99029.59
2022-08-03T17:11:38.884Z,99031.66
2022-08-03T17:14:14.762Z,99029.16
2022-08-03T17:16:52.750Z,99028.72
2022-08-03T17:19:24.510Z,99021.81
2022-08-03T17:22:04.284Z,99014.66
2022-08-03T17:24:34.915Z,99023.50
2022-08-03T17:27:08.643Z,99030.75
2022-08-03T17:29:45.178Z,99019.22
2022-08-03T17:32:18.334Z,99013.06
2022-08-03T17:34:50.261Z,99019.47
2022-08-03T17:37:49.852Z,99018.78
2022-08-03T17:40:12.551Z,99022.81
2022-08-03T17:42:50.777Z,99020.94
2022-08-03T17:45:21.196Z,99021.56
2022-08-03T17:47:57.768Z,99021.56
2022-08-03T17:50:35.683Z,99022.16
2022-08-03T17:53:23.688Z,99019.19
2022-08-03T17:56:44.773Z,99025.44
2022-08-03T17:59:08.532Z,99031.44
2022-08-03T18:02:11.576Z,99038.00
2022-08-03T18:04:57.214Z,99046.38
2022-08-03T18:07:40.952Z,99037.47
2022-08-03T18:10:12.112Z,99036.50
2022-08-03T18:12:51.885Z,99040.53
2022-08-03T18:15:25.626Z,99042.50
2022-08-03T18:18:02.482Z,99039.03
2022-08-03T18:20:41.181Z,99042.31
2022-08-03T18:23:25.418Z,99048.84
2022-08-03T18:26:02.050Z,99049.06
2022-08-03T18:28:30.495Z,99050.00
2022-08-03T18:30:58.872Z,99049.34
2022-08-03T18:34:17.565Z,99046.03
2022-08-03T18:36:22.139Z,99050.78
2022-08-03T18:41:49.672Z,99077.38
2022-08-03T18:44:37.738Z,99076.91
2022-08-03T18:47:23.497Z,99101.16
2022-08-03T18:50:14.069Z,99097.66
2022-08-03T18:52:55.781Z,99098.66
2022-08-03T18:55:33.561Z,99111.47
2022-08-03T18:58:18.158Z,99112.97
2022-08-03T19:00:54.687Z,99110.41
2022-08-03T19:03:43.143Z,99120.06
2022-08-03T19:06:20.665Z,99126.28
2022-08-03T19:08:55.735Z,99136.72
2022-08-03T19:11:28.454Z,99137.56
2022-08-03T19:14:28.685Z,99149.66
2022-08-03T19:17:29.369Z,99153.94
2022-08-03T19:19:59.290Z,99154.25
2022-08-03T19:22:33.169Z,99167.81
2022-08-03T19:25:02.690Z,99181.00
2022-08-03T19:27:32.178Z,99177.22
2022-08-03T19:30:04.946Z,99186.72
2022-08-03T19:32:38.500Z,99211.78
2022-08-03T19:38:00.190Z,99218.63
2022-08-03T19:40:31.892Z,99230.66
2022-08-03T19:43:10.865Z,99229.59
2022-08-03T19:46:04.916Z,99244.47
2022-08-03T19:48:36.713Z,99256.84
2022-08-03T19:54:01.867Z,99292.94
2022-08-03T19:56:30.409Z,99310.44
2022-08-03T19:58:59.874Z,99323.56
2022-08-03T20:01:28.404Z,99330.59
2022-08-03T20:03:56.599Z,99339.63
2022-08-03T20:06:25.503Z,99347.09
2022-08-03T20:08:55.195Z,99359.31
2022-08-03T20:11:28.715Z,99374.03
2022-08-03T20:13:59.196Z,99374.06
2022-08-03T20:16:27.589Z,99374.97
2022-08-03T20:18:56.037Z,99372.16
2022-08-03T20:21:25.618Z,99371.41
2022-08-03T20:24:03.361Z,99362.75
2022-08-03T20:26:54.131Z,99369.34
2022-08-03T20:30:05.289Z,99365.13
2022-08-03T20:32:18.728Z,99361.81
2022-08-03T20:34:53.289Z,99365.31
2022-08-03T20:37:21.652Z,99368.72
2022-08-03T20:39:49.981Z,99370.47
2022-08-03T20:42:21.434Z,99358.06
2022-08-03T20:45:04.718Z,99361.78
2022-08-03T20:47:59.382Z,99347.56
2022-08-03T20:50:28.582Z,99345.38
2022-08-03T20:52:57.008Z,99352.88
2022-08-03T20:55:47.184Z,99362.44
2022-08-03T20:58:15.494Z,99356.16
2022-08-03T21:00:44.039Z,99334.13
2022-08-03T21:03:12.103Z,99318.41
2022-08-03T21:05:47.999Z,99336.97
2022-08-03T21:08:22.680Z,99376.22
2022-08-03T21:10:53.657Z,99405.06
2022-08-03T21:13:02.505Z,99208.09
2022-08-03T21:13:05.402Z,99056.75
2022-08-03T21:13:10.025Z,99275.91
2022-08-03T21:13:29.144Z,99407.03
2022-08-03T21:16:11.630Z,99384.16
2022-08-03T21:18:46.706Z,99390.59
2022-08-03T21:21:17.475Z,99403.34
2022-08-03T21:23:49.835Z,99387.22
2022-08-03T21:26:19.257Z,99369.50
2022-08-03T21:28:49.788Z,99385.31
2022-08-03T21:31:24.599Z,99375.50
2022-08-03T21:33:57.116Z,99366.75
2022-08-03T21:36:27.875Z,99381.59
2022-08-03T21:38:57.838Z,99386.06
2022-08-03T21:41:27.520Z,99374.94
2022-08-03T21:43:57.413Z,99385.38
2022-08-03T21:46:27.163Z,99383.13
2022-08-03T21:50:07.503Z,99393.47
2022-08-03T21:51:51.615Z,99393.50
2022-08-03T21:54:21.861Z,99381.09
2022-08-03T21:56:52.734Z,99384.72
2022-08-03T21:59:24.406Z,99377.38
2022-08-03T22:01:55.209Z,99366.53
2022-08-03T22:04:50.315Z,99356.75
2022-08-03T22:07:15.542Z,99356.22
2022-08-03T22:09:51.212Z,99364.38
2022-08-03T22:12:22.973Z,99377.81
2022-08-03T22:15:01.193Z,99382.53
2022-08-03T22:17:55.596Z,99385.28
2022-08-03T22:20:21.426Z,99390.47
2022-08-03T22:22:55.366Z,99398.38
2022-08-03T22:25:27.311Z,99393.69
2022-08-03T22:27:56.193Z,99392.00
2022-08-03T22:30:25.767Z,99395.50
2022-08-03T22:32:56.276Z,99397.38
2022-08-03T22:35:26.901Z,99403.84
2022-08-03T22:37:56.409Z,99414.41
2022-08-03T22:40:24.611Z,99414.50
2022-08-03T22:42:53.444Z,99413.63
2022-08-03T22:46:07.542Z,99421.72
2022-08-03T22:48:12.377Z,99421.91
2022-08-03T22:50:41.050Z,99420.47
2022-08-03T22:53:09.664Z,99414.25
2022-08-03T22:55:38.305Z,99404.22
2022-08-03T22:58:06.386Z,99405.97
2022-08-03T23:00:34.800Z,99407.88
2022-08-03T23:03:07.002Z,99415.50
2022-08-03T23:06:00.238Z,99413.88
2022-08-03T23:08:27.329Z,99416.31
2022-08-03T23:11:00.606Z,99417.38
2022-08-03T23:13:32.848Z,99428.75
2022-08-03T23:16:02.029Z,99422.78
2022-08-03T23:18:37.301Z,99440.50
2022-08-03T23:21:11.149Z,99438.84
2022-08-03T23:23:44.654Z,99430.19
2022-08-03T23:26:14.090Z,99421.06
2022-08-03T23:28:46.317Z,99424.59
2022-08-03T23:31:15.780Z,99427.88
2022-08-03T23:33:46.009Z,99425.06
2022-08-03T23:36:30.954Z,99430.88
2022-08-03T23:39:03.229Z,99430.38
2022-08-03T23:41:33.243Z,99432.19
2022-08-03T23:44:03.862Z,99432.66
2022-08-03T23:46:33.600Z,99426.03
2022-08-03T23:49:01.641Z,99428.91
2022-08-03T23:51:43.184Z,99434.91
2022-08-03T23:54:19.823Z,99426.59
2022-08-03T23:56:56.278Z,99428.28
2022-08-03T23:59:29.856Z,99431.44
